Terminal Aerodrome Forecast
Issued by NWS Milwaukee/Sullivan, WI

Home | Current Version | Previous Version | Text Only | Print | Product List | Glossary On
Versions: 1 2 3 4 5 6 7 8 9 10 11 12 13 14 15 16 17 18 19 20 21 22 23 24 25 26 27 28 29 30 31 32 33 34
000
FTUS43 KMKX 241011 AAC
TAFMKE
TAF AMD
KMKE 241011Z 2410/2512 03006KT 1SM -RA BR OVC002
      TEMPO 2411/2413 1/2SM FG
     FM241400 02008KT 3SM -SHRA BR OVC005
     FM241800 01012G23KT P6SM VCSH OVC015
     FM242300 01012G21KT P6SM VCSH OVC030
     FM250000 01012G20KT P6SM OVC020
     FM251100 36011KT P6SM BKN008=

USA.gov is the U.S. government's official web portal to all federal, state and local government web resources and services.